sensor_id;sensor_type;location;lat;lon;timestamp;P1;durP1;ratioP1;P2;durP2;ratioP2
77872;SDS011;67068;52.116;4.440;2023-12-28T09:05:41;13.52;;;1.67;;
77872;SDS011;67068;52.116;4.440;2023-12-28T09:08:06;11.07;;;1.37;;
77872;SDS011;67068;52.116;4.440;2023-12-28T09:10:32;10.45;;;1.52;;
77872;SDS011;67068;52.116;4.440;2023-12-28T09:12:58;15.40;;;1.87;;
77872;SDS011;67068;52.116;4.440;2023-12-28T09:15:23;14.23;;;1.60;;
77872;SDS011;67068;52.116;4.440;2023-12-28T09:17:48;8.80;;;1.43;;
77872;SDS011;67068;52.116;4.440;2023-12-28T09:20:15;7.97;;;1.35;;
77872;SDS011;67068;52.116;4.440;2023-12-28T09:22:40;19.70;;;2.67;;
77872;SDS011;67068;52.116;4.440;2023-12-28T09:25:05;19.53;;;2.40;;
77872;SDS011;67068;52.116;4.440;2023-12-28T09:27:30;19.70;;;2.63;;
77872;SDS011;67068;52.116;4.440;2023-12-28T09:29:55;13.13;;;2.00;;
77872;SDS011;67068;52.116;4.440;2023-12-28T09:32:21;10.50;;;2.10;;
77872;SDS011;67068;52.116;4.440;2023-12-28T09:34:46;14.93;;;2.37;;
77872;SDS011;67068;52.116;4.440;2023-12-28T09:37:11;11.97;;;1.97;;
77872;SDS011;67068;52.116;4.440;2023-12-28T09:39:36;14.17;;;2.20;;
77872;SDS011;67068;52.116;4.440;2023-12-28T09:42:04;18.23;;;2.60;;
77872;SDS011;67068;52.116;4.440;2023-12-28T09:44:30;13.80;;;2.45;;
77872;SDS011;67068;52.116;4.440;2023-12-28T09:46:55;13.85;;;2.30;;
77872;SDS011;67068;52.116;4.440;2023-12-28T09:49:22;10.30;;;2.15;;
77872;SDS011;67068;52.116;4.440;2023-12-28T09:51:48;18.17;;;2.50;;
77872;SDS011;67068;52.116;4.440;2023-12-28T09:54:13;12.02;;;2.00;;
77872;SDS011;67068;52.116;4.440;2023-12-28T09:56:38;17.95;;;2.85;;
77872;SDS011;67068;52.116;4.440;2023-12-28T09:59:04;15.75;;;2.40;;
77872;SDS011;67068;52.116;4.440;2023-12-28T10:01:30;16.20;;;2.80;;
77872;SDS011;67068;52.116;4.440;2023-12-28T10:03:56;20.08;;;2.45;;
77872;SDS011;67068;52.116;4.440;2023-12-28T10:06:21;22.20;;;2.93;;
77872;SDS011;67068;52.116;4.440;2023-12-28T10:08:47;16.17;;;2.57;;
77872;SDS011;67068;52.116;4.440;2023-12-28T10:11:13;19.27;;;2.50;;
77872;SDS011;67068;52.116;4.440;2023-12-28T10:13:39;15.15;;;1.77;;
77872;SDS011;67068;52.116;4.440;2023-12-28T10:16:05;14.25;;;2.40;;
77872;SDS011;67068;52.116;4.440;2023-12-28T10:18:30;16.60;;;2.45;;
77872;SDS011;67068;52.116;4.440;2023-12-28T10:20:55;14.53;;;2.07;;
77872;SDS011;67068;52.116;4.440;2023-12-28T10:23:20;14.63;;;2.10;;
77872;SDS011;67068;52.116;4.440;2023-12-28T10:25:46;11.68;;;1.85;;
77872;SDS011;67068;52.116;4.440;2023-12-28T10:28:11;11.80;;;2.10;;
77872;SDS011;67068;52.116;4.440;2023-12-28T10:30:40;13.25;;;1.83;;
77872;SDS011;67068;52.116;4.440;2023-12-28T10:33:06;13.15;;;2.10;;
77872;SDS011;67068;52.116;4.440;2023-12-28T10:35:31;13.27;;;1.92;;
77872;SDS011;67068;52.116;4.440;2023-12-28T10:37:58;12.18;;;1.83;;
77872;SDS011;67068;52.116;4.440;2023-12-28T10:40:24;11.90;;;2.05;;
77872;SDS011;67068;52.116;4.440;2023-12-28T10:42:52;11.65;;;1.98;;
77872;SDS011;67068;52.116;4.440;2023-12-28T10:45:17;9.00;;;1.92;;
77872;SDS011;67068;52.116;4.440;2023-12-28T10:47:47;10.10;;;1.90;;
77872;SDS011;67068;52.116;4.440;2023-12-28T10:50:16;12.95;;;2.20;;
77872;SDS011;67068;52.116;4.440;2023-12-28T10:52:42;11.93;;;1.98;;
77872;SDS011;67068;52.116;4.440;2023-12-28T10:57:43;7.67;;;1.33;;
77872;SDS011;67068;52.116;4.440;2023-12-28T11:00:15;9.90;;;1.65;;
77872;SDS011;67068;52.116;4.440;2023-12-28T11:02:44;8.80;;;1.40;;
77872;SDS011;67068;52.116;4.440;2023-12-28T11:05:10;8.90;;;1.35;;
77872;SDS011;67068;52.116;4.440;2023-12-28T11:07:36;9.35;;;1.70;;
77872;SDS011;67068;52.116;4.440;2023-12-28T11:10:03;11.32;;;1.67;;
77872;SDS011;67068;52.116;4.440;2023-12-28T11:12:30;11.73;;;1.67;;
77872;SDS011;67068;52.116;4.440;2023-12-28T11:14:56;10.40;;;1.55;;
77872;SDS011;67068;52.116;4.440;2023-12-28T11:17:22;8.85;;;1.50;;
77872;SDS011;67068;52.116;4.440;2023-12-28T11:19:49;11.27;;;1.38;;
77872;SDS011;67068;52.116;4.440;2023-12-28T11:22:15;9.07;;;1.38;;
77872;SDS011;67068;52.116;4.440;2023-12-28T11:24:40;10.07;;;2.10;;
77872;SDS011;67068;52.116;4.440;2023-12-28T11:27:06;9.02;;;1.92;;
77872;SDS011;67068;52.116;4.440;2023-12-28T11:29:31;8.93;;;1.45;;
77872;SDS011;67068;52.116;4.440;2023-12-28T11:31:57;9.57;;;1.40;;
77872;SDS011;67068;52.116;4.440;2023-12-28T11:34:27;8.02;;;1.88;;
77872;SDS011;67068;52.116;4.440;2023-12-28T11:36:53;11.32;;;1.25;;
77872;SDS011;67068;52.116;4.440;2023-12-28T11:39:29;11.30;;;1.77;;
77872;SDS011;67068;52.116;4.440;2023-12-28T11:44:39;8.85;;;1.55;;
77872;SDS011;67068;52.116;4.440;2023-12-28T11:47:11;8.98;;;1.20;;
77872;SDS011;67068;52.116;4.440;2023-12-28T11:49:36;11.10;;;1.83;;
77872;SDS011;67068;52.116;4.440;2023-12-28T11:52:02;10.07;;;1.60;;
77872;SDS011;67068;52.116;4.440;2023-12-28T11:54:27;7.40;;;1.60;;
77872;SDS011;67068;52.116;4.440;2023-12-28T11:56:53;8.10;;;1.42;;
77872;SDS011;67068;52.116;4.440;2023-12-28T11:59:19;6.33;;;1.40;;
77872;SDS011;67068;52.116;4.440;2023-12-28T12:01:49;7.43;;;1.33;;
77872;SDS011;67068;52.116;4.440;2023-12-28T12:04:14;7.63;;;1.45;;
77872;SDS011;67068;52.116;4.440;2023-12-28T12:06:39;7.60;;;1.40;;
77872;SDS011;67068;52.116;4.440;2023-12-28T12:09:04;9.43;;;1.63;;
77872;SDS011;67068;52.116;4.440;2023-12-28T12:11:30;8.30;;;1.20;;
77872;SDS011;67068;52.116;4.440;2023-12-28T12:13:55;5.75;;;1.23;;
77872;SDS011;67068;52.116;4.440;2023-12-28T12:16:20;6.33;;;1.57;;
77872;SDS011;67068;52.116;4.440;2023-12-28T12:18:46;11.18;;;1.70;;
77872;SDS011;67068;52.116;4.440;2023-12-28T12:21:11;14.50;;;2.20;;
77872;SDS011;67068;52.116;4.440;2023-12-28T12:23:37;12.20;;;1.58;;
77872;SDS011;67068;52.116;4.440;2023-12-28T12:26:04;7.60;;;1.20;;
77872;SDS011;67068;52.116;4.440;2023-12-28T12:28:29;6.65;;;1.08;;
77872;SDS011;67068;52.116;4.440;2023-12-28T12:30:55;10.13;;;1.50;;
77872;SDS011;67068;52.116;4.440;2023-12-28T12:33:21;8.55;;;1.48;;
77872;SDS011;67068;52.116;4.440;2023-12-28T12:35:46;12.02;;;1.70;;
77872;SDS011;67068;52.116;4.440;2023-12-28T12:38:12;7.77;;;1.30;;
77872;SDS011;67068;52.116;4.440;2023-12-28T12:40:37;8.23;;;1.50;;
77872;SDS011;67068;52.116;4.440;2023-12-28T12:43:02;9.95;;;1.60;;
77872;SDS011;67068;52.116;4.440;2023-12-28T12:45:28;11.57;;;1.97;;
77872;SDS011;67068;52.116;4.440;2023-12-28T12:47:53;14.00;;;1.83;;
77872;SDS011;67068;52.116;4.440;2023-12-28T12:50:18;11.83;;;1.80;;
77872;SDS011;67068;52.116;4.440;2023-12-28T12:52:44;8.77;;;1.55;;
77872;SDS011;67068;52.116;4.440;2023-12-28T12:55:13;9.70;;;1.50;;
77872;SDS011;67068;52.116;4.440;2023-12-28T12:57:41;11.45;;;2.17;;
77872;SDS011;67068;52.116;4.440;2023-12-28T13:00:08;10.45;;;1.60;;
77872;SDS011;67068;52.116;4.440;2023-12-28T13:02:34;7.45;;;1.50;;
77872;SDS011;67068;52.116;4.440;2023-12-28T13:05:01;11.63;;;1.98;;
77872;SDS011;67068;52.116;4.440;2023-12-28T13:07:27;12.68;;;2.38;;
77872;SDS011;67068;52.116;4.440;2023-12-28T13:09:52;7.47;;;1.43;;
77872;SDS011;67068;52.116;4.440;2023-12-28T13:12:17;8.00;;;1.40;;
77872;SDS011;67068;52.116;4.440;2023-12-28T13:14:42;8.57;;;1.37;;
77872;SDS011;67068;52.116;4.440;2023-12-28T13:17:09;11.75;;;1.50;;
77872;SDS011;67068;52.116;4.440;2023-12-28T13:19:34;10.35;;;1.50;;
77872;SDS011;67068;52.116;4.440;2023-12-28T13:22:00;9.03;;;1.67;;
77872;SDS011;67068;52.116;4.440;2023-12-28T13:24:25;11.90;;;1.90;;
77872;SDS011;67068;52.116;4.440;2023-12-28T13:26:50;8.70;;;1.13;;
77872;SDS011;67068;52.116;4.440;2023-12-28T13:29:15;10.47;;;1.80;;
77872;SDS011;67068;52.116;4.440;2023-12-28T13:31:40;10.63;;;1.50;;
77872;SDS011;67068;52.116;4.440;2023-12-28T13:34:06;10.17;;;1.67;;
77872;SDS011;67068;52.116;4.440;2023-12-28T13:36:31;8.67;;;1.67;;
77872;SDS011;67068;52.116;4.440;2023-12-28T13:38:56;11.50;;;1.67;;
77872;SDS011;67068;52.116;4.440;2023-12-28T13:41:21;11.30;;;1.60;;
77872;SDS011;67068;52.116;4.440;2023-12-28T13:43:47;11.47;;;1.90;;
77872;SDS011;67068;52.116;4.440;2023-12-28T13:46:12;10.17;;;1.60;;
77872;SDS011;67068;52.116;4.440;2023-12-28T13:48:37;10.00;;;1.60;;
77872;SDS011;67068;52.116;4.440;2023-12-28T13:51:06;9.18;;;1.73;;
77872;SDS011;67068;52.116;4.440;2023-12-28T13:53:31;8.35;;;1.23;;
77872;SDS011;67068;52.116;4.440;2023-12-28T13:56:00;11.43;;;1.52;;
77872;SDS011;67068;52.116;4.440;2023-12-28T13:58:25;9.23;;;1.48;;
77872;SDS011;67068;52.116;4.440;2023-12-28T14:00:51;10.47;;;2.23;;
77872;SDS011;67068;52.116;4.440;2023-12-28T14:03:16;9.33;;;1.60;;
77872;SDS011;67068;52.116;4.440;2023-12-28T14:05:41;14.67;;;2.30;;
77872;SDS011;67068;52.116;4.440;2023-12-28T14:08:07;11.88;;;1.85;;
77872;SDS011;67068;52.116;4.440;2023-12-28T14:10:32;7.77;;;1.50;;
77872;SDS011;67068;52.116;4.440;2023-12-28T14:12:58;10.70;;;1.70;;
77872;SDS011;67068;52.116;4.440;2023-12-28T14:15:23;10.60;;;1.43;;
77872;SDS011;67068;52.116;4.440;2023-12-28T14:17:48;8.27;;;1.27;;
77872;SDS011;67068;52.116;4.440;2023-12-28T14:20:13;10.57;;;1.90;;
77872;SDS011;67068;52.116;4.440;2023-12-28T14:22:39;11.30;;;1.57;;
77872;SDS011;67068;52.116;4.440;2023-12-28T14:25:04;11.90;;;1.75;;
77872;SDS011;67068;52.116;4.440;2023-12-28T14:27:30;8.02;;;1.40;;
77872;SDS011;67068;52.116;4.440;2023-12-28T14:29:55;9.15;;;1.77;;
77872;SDS011;67068;52.116;4.440;2023-12-28T14:32:21;9.73;;;1.75;;
77872;SDS011;67068;52.116;4.440;2023-12-28T14:34:46;9.73;;;1.63;;
77872;SDS011;67068;52.116;4.440;2023-12-28T14:37:11;8.38;;;1.42;;
77872;SDS011;67068;52.116;4.440;2023-12-28T14:39:37;12.03;;;2.27;;
77872;SDS011;67068;52.116;4.440;2023-12-28T14:42:03;9.65;;;1.63;;
77872;SDS011;67068;52.116;4.440;2023-12-28T14:44:31;7.47;;;1.60;;
77872;SDS011;67068;52.116;4.440;2023-12-28T14:46:56;10.00;;;1.55;;
77872;SDS011;67068;52.116;4.440;2023-12-28T14:49:21;12.13;;;1.90;;
77872;SDS011;67068;52.116;4.440;2023-12-28T14:51:47;11.03;;;1.50;;
77872;SDS011;67068;52.116;4.440;2023-12-28T14:54:12;8.02;;;1.77;;
77872;SDS011;67068;52.116;4.440;2023-12-28T14:56:37;10.20;;;1.60;;
77872;SDS011;67068;52.116;4.440;2023-12-28T14:59:03;8.00;;;1.13;;
77872;SDS011;67068;52.116;4.440;2023-12-28T15:01:28;11.07;;;1.67;;
77872;SDS011;67068;52.116;4.440;2023-12-28T15:03:53;8.33;;;1.40;;
77872;SDS011;67068;52.116;4.440;2023-12-28T15:06:18;10.10;;;2.07;;
77872;SDS011;67068;52.116;4.440;2023-12-28T15:08:43;8.20;;;1.27;;
77872;SDS011;67068;52.116;4.440;2023-12-28T15:11:09;5.80;;;1.23;;
77872;SDS011;67068;52.116;4.440;2023-12-28T15:13:35;9.32;;;1.83;;
77872;SDS011;67068;52.116;4.440;2023-12-28T15:16:01;9.52;;;1.65;;
77872;SDS011;67068;52.116;4.440;2023-12-28T15:18:28;7.55;;;1.33;;
77872;SDS011;67068;52.116;4.440;2023-12-28T15:20:53;9.60;;;2.13;;
77872;SDS011;67068;52.116;4.440;2023-12-28T15:23:19;8.05;;;1.70;;
77872;SDS011;67068;52.116;4.440;2023-12-28T15:25:45;6.72;;;1.10;;
77872;SDS011;67068;52.116;4.440;2023-12-28T15:28:10;10.27;;;1.50;;
77872;SDS011;67068;52.116;4.440;2023-12-28T15:30:36;8.87;;;1.73;;
77872;SDS011;67068;52.116;4.440;2023-12-28T15:33:01;8.40;;;1.58;;
77872;SDS011;67068;52.116;4.440;2023-12-28T15:35:27;9.43;;;1.60;;
77872;SDS011;67068;52.116;4.440;2023-12-28T15:37:52;7.63;;;2.17;;
77872;SDS011;67068;52.116;4.440;2023-12-28T15:40:20;10.05;;;1.85;;
77872;SDS011;67068;52.116;4.440;2023-12-28T15:42:45;8.53;;;1.30;;
77872;SDS011;67068;52.116;4.440;2023-12-28T15:45:10;8.33;;;1.57;;
77872;SDS011;67068;52.116;4.440;2023-12-28T15:47:35;8.00;;;1.40;;
77872;SDS011;67068;52.116;4.440;2023-12-28T15:50:00;8.00;;;1.30;;
77872;SDS011;67068;52.116;4.440;2023-12-28T15:52:27;7.72;;;1.58;;
77872;SDS011;67068;52.116;4.440;2023-12-28T15:54:52;7.82;;;1.33;;
77872;SDS011;67068;52.116;4.440;2023-12-28T15:57:17;7.17;;;1.47;;
77872;SDS011;67068;52.116;4.440;2023-12-28T15:59:43;7.50;;;1.90;;
77872;SDS011;67068;52.116;4.440;2023-12-28T16:02:08;6.43;;;1.20;;
77872;SDS011;67068;52.116;4.440;2023-12-28T16:04:33;8.53;;;1.63;;
77872;SDS011;67068;52.116;4.440;2023-12-28T16:06:59;7.82;;;1.85;;
77872;SDS011;67068;52.116;4.440;2023-12-28T16:09:24;8.33;;;1.50;;
77872;SDS011;67068;52.116;4.440;2023-12-28T16:11:49;7.53;;;1.15;;
77872;SDS011;67068;52.116;4.440;2023-12-28T16:14:15;6.90;;;1.30;;
77872;SDS011;67068;52.116;4.440;2023-12-28T16:16:40;8.00;;;1.20;;
77872;SDS011;67068;52.116;4.440;2023-12-28T16:19:06;9.18;;;1.52;;
77872;SDS011;67068;52.116;4.440;2023-12-28T16:21:31;6.28;;;1.40;;
77872;SDS011;67068;52.116;4.440;2023-12-28T16:23:57;6.63;;;1.67;;
77872;SDS011;67068;52.116;4.440;2023-12-28T16:26:23;5.85;;;1.55;;
77872;SDS011;67068;52.116;4.440;2023-12-28T16:28:48;6.72;;;1.38;;
77872;SDS011;67068;52.116;4.440;2023-12-28T16:31:13;7.63;;;1.40;;
77872;SDS011;67068;52.116;4.440;2023-12-28T16:33:38;8.93;;;1.87;;
77872;SDS011;67068;52.116;4.440;2023-12-28T16:36:03;9.67;;;1.87;;
